sensor_id;sensor_type;location;lat;lon;timestamp;temperature;humidity
6106;DHT22;3083;51.508;7.966;2023-02-15T00:00:18;3.20;99.90
6106;DHT22;3083;51.508;7.966;2023-02-15T00:02:47;3.20;99.90
6106;DHT22;3083;51.508;7.966;2023-02-15T00:05:14;3.20;99.90
6106;DHT22;3083;51.508;7.966;2023-02-15T00:07:41;3.20;99.90
6106;DHT22;3083;51.508;7.966;2023-02-15T00:10:08;3.20;99.90
6106;DHT22;3083;51.508;7.966;2023-02-15T00:12:36;3.20;99.90
6106;DHT22;3083;51.508;7.966;2023-02-15T00:15:03;3.30;99.90
6106;DHT22;3083;51.508;7.966;2023-02-15T00:17:30;3.20;99.90
6106;DHT22;3083;51.508;7.966;2023-02-15T00:19:59;3.20;99.90
6106;DHT22;3083;51.508;7.966;2023-02-15T00:22:26;3.20;99.90
6106;DHT22;3083;51.508;7.966;2023-02-15T00:24:53;3.20;99.90
6106;DHT22;3083;51.508;7.966;2023-02-15T00:27:20;3.10;99.90
6106;DHT22;3083;51.508;7.966;2023-02-15T00:29:47;3.10;99.90
6106;DHT22;3083;51.508;7.966;2023-02-15T00:32:14;3.00;99.90
6106;DHT22;3083;51.508;7.966;2023-02-15T00:34:40;2.90;99.90
6106;DHT22;3083;51.508;7.966;2023-02-15T00:37:10;2.80;99.90
6106;DHT22;3083;51.508;7.966;2023-02-15T00:39:37;2.70;99.90
6106;DHT22;3083;51.508;7.966;2023-02-15T00:42:04;2.70;99.90
6106;DHT22;3083;51.508;7.966;2023-02-15T00:44:30;2.60;99.90
6106;DHT22;3083;51.508;7.966;2023-02-15T00:46:57;2.60;99.90
6106;DHT22;3083;51.508;7.966;2023-02-15T00:49:24;2.50;99.90
6106;DHT22;3083;51.508;7.966;2023-02-15T00:51:51;2.50;99.90
6106;DHT22;3083;51.508;7.966;2023-02-15T00:54:20;2.50;99.90
6106;DHT22;3083;51.508;7.966;2023-02-15T00:56:47;2.50;99.90
6106;DHT22;3083;51.508;7.966;2023-02-15T00:59:13;2.40;99.90
6106;DHT22;3083;51.508;7.966;2023-02-15T01:01:40;2.50;99.90
6106;DHT22;3083;51.508;7.966;2023-02-15T01:04:07;2.50;99.90
6106;DHT22;3083;51.508;7.966;2023-02-15T01:06:34;2.60;99.90
6106;DHT22;3083;51.508;7.966;2023-02-15T01:09:01;2.60;99.90
6106;DHT22;3083;51.508;7.966;2023-02-15T01:11:30;2.60;99.90
6106;DHT22;3083;51.508;7.966;2023-02-15T01:13:57;2.70;99.90
6106;DHT22;3083;51.508;7.966;2023-02-15T01:16:26;2.70;99.90
6106;DHT22;3083;51.508;7.966;2023-02-15T01:18:53;2.70;99.90
6106;DHT22;3083;51.508;7.966;2023-02-15T01:21:23;2.70;99.90
6106;DHT22;3083;51.508;7.966;2023-02-15T01:23:50;2.70;99.90
6106;DHT22;3083;51.508;7.966;2023-02-15T01:26:17;2.70;99.90
6106;DHT22;3083;51.508;7.966;2023-02-15T01:28:45;2.60;99.90
6106;DHT22;3083;51.508;7.966;2023-02-15T01:31:14;2.60;99.90
6106;DHT22;3083;51.508;7.966;2023-02-15T01:33:42;2.70;99.90
6106;DHT22;3083;51.508;7.966;2023-02-15T01:36:09;2.70;99.90
6106;DHT22;3083;51.508;7.966;2023-02-15T01:38:36;2.70;99.90
6106;DHT22;3083;51.508;7.966;2023-02-15T01:41:05;2.70;99.90
6106;DHT22;3083;51.508;7.966;2023-02-15T01:43:52;2.70;99.90
6106;DHT22;3083;51.508;7.966;2023-02-15T01:46:23;2.60;99.90
6106;DHT22;3083;51.508;7.966;2023-02-15T01:48:55;2.60;99.90
6106;DHT22;3083;51.508;7.966;2023-02-15T01:51:24;2.50;99.90
6106;DHT22;3083;51.508;7.966;2023-02-15T01:53:57;2.40;99.90
6106;DHT22;3083;51.508;7.966;2023-02-15T01:56:28;2.30;99.90
6106;DHT22;3083;51.508;7.966;2023-02-15T01:58:59;2.20;99.90
6106;DHT22;3083;51.508;7.966;2023-02-15T02:01:29;2.20;99.90
6106;DHT22;3083;51.508;7.966;2023-02-15T02:04:00;2.10;99.90
6106;DHT22;3083;51.508;7.966;2023-02-15T02:06:29;2.10;99.90
6106;DHT22;3083;51.508;7.966;2023-02-15T02:08:56;2.00;99.90
6106;DHT22;3083;51.508;7.966;2023-02-15T02:11:24;2.00;99.90
6106;DHT22;3083;51.508;7.966;2023-02-15T02:13:51;2.00;99.90
6106;DHT22;3083;51.508;7.966;2023-02-15T02:16:24;2.00;99.90
6106;DHT22;3083;51.508;7.966;2023-02-15T02:19:17;2.00;99.90
6106;DHT22;3083;51.508;7.966;2023-02-15T02:31:44;2.10;99.90
6106;DHT22;3083;51.508;7.966;2023-02-15T02:34:19;2.10;99.90
6106;DHT22;3083;51.508;7.966;2023-02-15T02:36:52;2.10;99.90
6106;DHT22;3083;51.508;7.966;2023-02-15T02:39:28;2.00;99.90
6106;DHT22;3083;51.508;7.966;2023-02-15T02:42:01;2.00;99.90
6106;DHT22;3083;51.508;7.966;2023-02-15T02:44:38;1.90;99.90
6106;DHT22;3083;51.508;7.966;2023-02-15T02:47:11;1.80;99.90
6106;DHT22;3083;51.508;7.966;2023-02-15T02:49:43;1.80;99.90
6106;DHT22;3083;51.508;7.966;2023-02-15T02:52:35;1.80;99.90
6106;DHT22;3083;51.508;7.966;2023-02-15T02:55:04;1.70;99.90
6106;DHT22;3083;51.508;7.966;2023-02-15T02:57:32;1.70;99.90
6106;DHT22;3083;51.508;7.966;2023-02-15T03:00:03;1.60;99.90
6106;DHT22;3083;51.508;7.966;2023-02-15T03:02:33;1.50;99.90
6106;DHT22;3083;51.508;7.966;2023-02-15T03:05:06;1.50;99.90
6106;DHT22;3083;51.508;7.966;2023-02-15T03:07:35;1.40;99.90
6106;DHT22;3083;51.508;7.966;2023-02-15T03:10:05;1.40;99.90
6106;DHT22;3083;51.508;7.966;2023-02-15T03:12:35;1.30;99.90
6106;DHT22;3083;51.508;7.966;2023-02-15T03:15:06;1.30;99.90
6106;DHT22;3083;51.508;7.966;2023-02-15T03:17:37;1.20;99.90
6106;DHT22;3083;51.508;7.966;2023-02-15T03:20:10;1.20;99.90
6106;DHT22;3083;51.508;7.966;2023-02-15T03:22:41;1.10;99.90
6106;DHT22;3083;51.508;7.966;2023-02-15T03:25:14;1.10;99.90
6106;DHT22;3083;51.508;7.966;2023-02-15T03:27:47;1.00;99.90
6106;DHT22;3083;51.508;7.966;2023-02-15T03:30:19;1.00;99.90
6106;DHT22;3083;51.508;7.966;2023-02-15T03:32:48;1.00;99.90
6106;DHT22;3083;51.508;7.966;2023-02-15T03:35:18;0.90;99.90
6106;DHT22;3083;51.508;7.966;2023-02-15T03:37:48;0.90;99.90
6106;DHT22;3083;51.508;7.966;2023-02-15T03:40:20;0.90;99.90
6106;DHT22;3083;51.508;7.966;2023-02-15T03:43:10;0.80;99.90
6106;DHT22;3083;51.508;7.966;2023-02-15T03:45:40;0.80;99.90
6106;DHT22;3083;51.508;7.966;2023-02-15T03:48:22;0.80;99.90
6106;DHT22;3083;51.508;7.966;2023-02-15T03:50:53;0.70;99.90
6106;DHT22;3083;51.508;7.966;2023-02-15T03:53:48;0.70;99.90
6106;DHT22;3083;51.508;7.966;2023-02-15T03:56:16;0.70;99.90
6106;DHT22;3083;51.508;7.966;2023-02-15T03:58:43;0.60;99.90
6106;DHT22;3083;51.508;7.966;2023-02-15T04:01:33;0.50;99.90
6106;DHT22;3083;51.508;7.966;2023-02-15T04:04:31;0.40;99.90
6106;DHT22;3083;51.508;7.966;2023-02-15T04:07:00;0.40;99.90
6106;DHT22;3083;51.508;7.966;2023-02-15T04:09:27;0.40;99.90
6106;DHT22;3083;51.508;7.966;2023-02-15T04:12:11;0.40;99.90
6106;DHT22;3083;51.508;7.966;2023-02-15T04:14:38;0.40;99.90
6106;DHT22;3083;51.508;7.966;2023-02-15T04:17:23;0.30;99.90
6106;DHT22;3083;51.508;7.966;2023-02-15T04:19:49;0.30;99.90
6106;DHT22;3083;51.508;7.966;2023-02-15T04:22:35;0.30;99.90
6106;DHT22;3083;51.508;7.966;2023-02-15T04:25:20;0.20;99.90
6106;DHT22;3083;51.508;7.966;2023-02-15T04:27:49;0.20;99.90
6106;DHT22;3083;51.508;7.966;2023-02-15T04:30:18;0.10;99.90
6106;DHT22;3083;51.508;7.966;2023-02-15T04:32:46;0.10;99.90
6106;DHT22;3083;51.508;7.966;2023-02-15T04:35:14;0.10;99.90
6106;DHT22;3083;51.508;7.966;2023-02-15T04:37:43;0.00;99.90
6106;DHT22;3083;51.508;7.966;2023-02-15T04:40:11;0.00;99.90
6106;DHT22;3083;51.508;7.966;2023-02-15T04:42:39;0.00;99.90
6106;DHT22;3083;51.508;7.966;2023-02-15T04:45:06;0.10;99.90
6106;DHT22;3083;51.508;7.966;2023-02-15T04:47:33;0.10;99.90
6106;DHT22;3083;51.508;7.966;2023-02-15T04:50:00;0.10;99.90
6106;DHT22;3083;51.508;7.966;2023-02-15T04:52:27;0.10;99.90
6106;DHT22;3083;51.508;7.966;2023-02-15T04:54:55;0.10;99.90
6106;DHT22;3083;51.508;7.966;2023-02-15T04:57:22;0.20;99.90
6106;DHT22;3083;51.508;7.966;2023-02-15T04:59:49;0.10;99.90
6106;DHT22;3083;51.508;7.966;2023-02-15T05:02:16;0.10;99.90
6106;DHT22;3083;51.508;7.966;2023-02-15T05:04:43;0.00;99.90
6106;DHT22;3083;51.508;7.966;2023-02-15T05:07:10;-0.10;99.90
6106;DHT22;3083;51.508;7.966;2023-02-15T05:09:37;-0.10;99.90
6106;DHT22;3083;51.508;7.966;2023-02-15T05:12:05;-0.10;99.90
6106;DHT22;3083;51.508;7.966;2023-02-15T05:14:32;-0.20;99.90
6106;DHT22;3083;51.508;7.966;2023-02-15T05:16:59;-0.20;99.90
6106;DHT22;3083;51.508;7.966;2023-02-15T05:19:28;-0.30;99.90
6106;DHT22;3083;51.508;7.966;2023-02-15T05:21:55;-0.30;99.90
6106;DHT22;3083;51.508;7.966;2023-02-15T05:24:22;-0.40;99.90
6106;DHT22;3083;51.508;7.966;2023-02-15T05:27:10;-0.30;99.90
6106;DHT22;3083;51.508;7.966;2023-02-15T05:29:55;-0.40;99.90
6106;DHT22;3083;51.508;7.966;2023-02-15T05:32:22;-0.40;99.90
6106;DHT22;3083;51.508;7.966;2023-02-15T05:34:49;-0.40;99.90
6106;DHT22;3083;51.508;7.966;2023-02-15T05:37:15;-0.40;99.90
6106;DHT22;3083;51.508;7.966;2023-02-15T05:39:42;-0.40;99.90
6106;DHT22;3083;51.508;7.966;2023-02-15T05:42:11;-0.40;99.90
6106;DHT22;3083;51.508;7.966;2023-02-15T05:44:37;-0.30;99.90
6106;DHT22;3083;51.508;7.966;2023-02-15T05:47:04;-0.30;99.90
6106;DHT22;3083;51.508;7.966;2023-02-15T05:49:33;-0.30;99.90
6106;DHT22;3083;51.508;7.966;2023-02-15T05:51:59;-0.30;99.90
6106;DHT22;3083;51.508;7.966;2023-02-15T05:54:27;-0.30;99.90
6106;DHT22;3083;51.508;7.966;2023-02-15T05:56:54;-0.30;99.90
6106;DHT22;3083;51.508;7.966;2023-02-15T05:59:22;-0.20;99.90
6106;DHT22;3083;51.508;7.966;2023-02-15T06:01:49;-0.30;99.90
6106;DHT22;3083;51.508;7.966;2023-02-15T06:04:16;-0.30;99.90
6106;DHT22;3083;51.508;7.966;2023-02-15T06:06:43;-0.30;99.90
6106;DHT22;3083;51.508;7.966;2023-02-15T06:09:10;-0.30;99.90
6106;DHT22;3083;51.508;7.966;2023-02-15T06:11:38;-0.30;99.90
6106;DHT22;3083;51.508;7.966;2023-02-15T06:14:05;-0.30;99.90
6106;DHT22;3083;51.508;7.966;2023-02-15T06:16:33;-0.30;99.90
6106;DHT22;3083;51.508;7.966;2023-02-15T06:19:00;-0.40;99.90
6106;DHT22;3083;51.508;7.966;2023-02-15T06:21:27;-0.40;99.90
6106;DHT22;3083;51.508;7.966;2023-02-15T06:23:54;-0.40;99.90
6106;DHT22;3083;51.508;7.966;2023-02-15T06:26:21;-0.40;99.90
6106;DHT22;3083;51.508;7.966;2023-02-15T06:28:48;-0.40;99.90
6106;DHT22;3083;51.508;7.966;2023-02-15T06:31:15;-0.40;99.90
6106;DHT22;3083;51.508;7.966;2023-02-15T06:33:43;-0.40;99.90
6106;DHT22;3083;51.508;7.966;2023-02-15T06:36:10;-0.40;99.90
6106;DHT22;3083;51.508;7.966;2023-02-15T06:38:38;-0.40;99.90
6106;DHT22;3083;51.508;7.966;2023-02-15T06:41:05;-0.30;99.90
6106;DHT22;3083;51.508;7.966;2023-02-15T06:43:32;-0.20;99.90
6106;DHT22;3083;51.508;7.966;2023-02-15T06:45:59;-0.20;99.90
6106;DHT22;3083;51.508;7.966;2023-02-15T06:48:26;-0.20;99.90
6106;DHT22;3083;51.508;7.966;2023-02-15T06:50:54;-0.20;99.90
6106;DHT22;3083;51.508;7.966;2023-02-15T06:53:21;-0.20;99.90
6106;DHT22;3083;51.508;7.966;2023-02-15T06:55:48;-0.20;99.90
6106;DHT22;3083;51.508;7.966;2023-02-15T06:58:15;-0.20;99.90
6106;DHT22;3083;51.508;7.966;2023-02-15T07:00:42;-0.20;99.90
6106;DHT22;3083;51.508;7.966;2023-02-15T07:03:13;-0.10;99.90
6106;DHT22;3083;51.508;7.966;2023-02-15T07:05:40;-0.10;99.90
6106;DHT22;3083;51.508;7.966;2023-02-15T07:08:08;-0.10;99.90
6106;DHT22;3083;51.508;7.966;2023-02-15T07:10:35;0.00;99.90
6106;DHT22;3083;51.508;7.966;2023-02-15T07:13:02;0.00;99.90
6106;DHT22;3083;51.508;7.966;2023-02-15T07:15:28;0.10;99.90
6106;DHT22;3083;51.508;7.966;2023-02-15T07:17:57;0.10;99.90
6106;DHT22;3083;51.508;7.966;2023-02-15T07:20:23;0.20;99.90
6106;DHT22;3083;51.508;7.966;2023-02-15T07:22:51;0.20;99.90
6106;DHT22;3083;51.508;7.966;2023-02-15T07:25:19;0.30;99.90
6106;DHT22;3083;51.508;7.966;2023-02-15T07:27:46;0.40;99.90
6106;DHT22;3083;51.508;7.966;2023-02-15T07:30:16;0.50;99.90
6106;DHT22;3083;51.508;7.966;2023-02-15T07:32:43;0.60;99.90
6106;DHT22;3083;51.508;7.966;2023-02-15T07:35:46;0.70;99.90
6106;DHT22;3083;51.508;7.966;2023-02-15T07:38:14;0.80;99.90
6106;DHT22;3083;51.508;7.966;2023-02-15T07:40:42;0.80;99.90
6106;DHT22;3083;51.508;7.966;2023-02-15T07:43:10;0.90;99.90
6106;DHT22;3083;51.508;7.966;2023-02-15T07:45:37;0.90;99.90
6106;DHT22;3083;51.508;7.966;2023-02-15T07:48:05;1.00;99.90
6106;DHT22;3083;51.508;7.966;2023-02-15T07:50:32;1.10;99.90
6106;DHT22;3083;51.508;7.966;2023-02-15T07:53:01;1.20;99.90
6106;DHT22;3083;51.508;7.966;2023-02-15T07:55:28;1.30;99.90
6106;DHT22;3083;51.508;7.966;2023-02-15T07:57:56;1.40;99.90
6106;DHT22;3083;51.508;7.966;2023-02-15T08:00:23;1.60;99.90
6106;DHT22;3083;51.508;7.966;2023-02-15T08:02:53;1.70;99.90
6106;DHT22;3083;51.508;7.966;2023-02-15T08:05:34;1.90;99.90
6106;DHT22;3083;51.508;7.966;2023-02-15T08:08:01;2.00;99.90
6106;DHT22;3083;51.508;7.966;2023-02-15T08:10:27;2.20;99.90
6106;DHT22;3083;51.508;7.966;2023-02-15T08:13:10;2.30;99.90
6106;DHT22;3083;51.508;7.966;2023-02-15T08:15:37;2.50;99.90
6106;DHT22;3083;51.508;7.966;2023-02-15T08:18:04;2.60;99.90
6106;DHT22;3083;51.508;7.966;2023-02-15T08:20:31;2.80;99.90
6106;DHT22;3083;51.508;7.966;2023-02-15T08:22:57;2.90;99.90
6106;DHT22;3083;51.508;7.966;2023-02-15T08:25:24;3.10;99.90
6106;DHT22;3083;51.508;7.966;2023-02-15T08:27:51;3.20;99.90
6106;DHT22;3083;51.508;7.966;2023-02-15T08:30:20;3.30;99.90
6106;DHT22;3083;51.508;7.966;2023-02-15T08:32:46;3.50;99.90
6106;DHT22;3083;51.508;7.966;2023-02-15T08:35:13;3.60;99.90
6106;DHT22;3083;51.508;7.966;2023-02-15T08:37:40;3.80;99.90
6106;DHT22;3083;51.508;7.966;2023-02-15T08:40:08;4.00;99.90
6106;DHT22;3083;51.508;7.966;2023-02-15T08:42:35;4.10;99.90
6106;DHT22;3083;51.508;7.966;2023-02-15T08:45:02;4.30;99.90
6106;DHT22;3083;51.508;7.966;2023-02-15T08:47:31;4.50;99.90
6106;DHT22;3083;51.508;7.966;2023-02-15T08:49:58;4.60;99.90
6106;DHT22;3083;51.508;7.966;2023-02-15T08:52:25;4.80;99.90
6106;DHT22;3083;51.508;7.966;2023-02-15T08:54:52;5.00;99.90
6106;DHT22;3083;51.508;7.966;2023-02-15T08:57:19;5.10;99.90
6106;DHT22;3083;51.508;7.966;2023-02-15T08:59:46;5.30;99.90
6106;DHT22;3083;51.508;7.966;2023-02-15T09:02:14;5.50;99.90
6106;DHT22;3083;51.508;7.966;2023-02-15T09:04:42;5.70;99.90
6106;DHT22;3083;51.508;7.966;2023-02-15T09:07:09;5.90;99.90
6106;DHT22;3083;51.508;7.966;2023-02-15T09:09:36;6.10;99.90
6106;DHT22;3083;51.508;7.966;2023-02-15T09:12:03;6.30;99.90
6106;DHT22;3083;51.508;7.966;2023-02-15T09:14:30;6.50;99.90
6106;DHT22;3083;51.508;7.966;2023-02-15T09:16:56;6.80;99.90
6106;DHT22;3083;51.508;7.966;2023-02-15T09:19:24;7.00;99.90
6106;DHT22;3083;51.508;7.966;2023-02-15T09:21:52;7.10;99.90
6106;DHT22;3083;51.508;7.966;2023-02-15T09:24:20;7.30;99.90
6106;DHT22;3083;51.508;7.966;2023-02-15T09:26:48;7.50;99.90
6106;DHT22;3083;51.508;7.966;2023-02-15T09:29:16;7.60;99.90
6106;DHT22;3083;51.508;7.966;2023-02-15T09:31:44;7.80;99.90
6106;DHT22;3083;51.508;7.966;2023-02-15T09:34:13;8.00;99.90
6106;DHT22;3083;51.508;7.966;2023-02-15T09:36:41;8.10;99.90
6106;DHT22;3083;51.508;7.966;2023-02-15T09:39:11;8.30;99.90
6106;DHT22;3083;51.508;7.966;2023-02-15T09:42:03;8.50;99.90
6106;DHT22;3083;51.508;7.966;2023-02-15T09:44:41;8.70;99.90
6106;DHT22;3083;51.508;7.966;2023-02-15T09:47:25;8.90;99.90
6106;DHT22;3083;51.508;7.966;2023-02-15T09:50:03;9.10;99.90
6106;DHT22;3083;51.508;7.966;2023-02-15T09:52:45;9.30;99.90
6106;DHT22;3083;51.508;7.966;2023-02-15T09:55:28;9.60;99.90
6106;DHT22;3083;51.508;7.966;2023-02-15T09:58:06;9.80;99.90
6106;DHT22;3083;51.508;7.966;2023-02-15T10:00:42;10.10;99.90
6106;DHT22;3083;51.508;7.966;2023-02-15T10:03:19;10.20;99.90
6106;DHT22;3083;51.508;7.966;2023-02-15T10:06:02;10.40;99.90
6106;DHT22;3083;51.508;7.966;2023-02-15T10:11:25;10.90;99.90
6106;DHT22;3083;51.508;7.966;2023-02-15T10:14:18;11.10;99.90
6106;DHT22;3083;51.508;7.966;2023-02-15T10:16:56;11.30;99.90
6106;DHT22;3083;51.508;7.966;2023-02-15T10:19:28;11.50;99.90
6106;DHT22;3083;51.508;7.966;2023-02-15T10:22:06;11.70;99.90
6106;DHT22;3083;51.508;7.966;2023-02-15T10:27:30;12.00;99.90
6106;DHT22;3083;51.508;7.966;2023-02-15T10:30:06;12.20;99.90
6106;DHT22;3083;51.508;7.966;2023-02-15T10:32:39;12.30;99.90
6106;DHT22;3083;51.508;7.966;2023-02-15T10:35:14;12.40;99.90
6106;DHT22;3083;51.508;7.966;2023-02-15T10:38:04;12.50;99.90
6106;DHT22;3083;51.508;7.966;2023-02-15T10:40:41;12.60;99.90
6106;DHT22;3083;51.508;7.966;2023-02-15T10:43:32;12.80;99.90
6106;DHT22;3083;51.508;7.966;2023-02-15T10:46:11;12.90;99.90
6106;DHT22;3083;51.508;7.966;2023-02-15T10:49:13;13.00;99.90
6106;DHT22;3083;51.508;7.966;2023-02-15T10:51:52;13.10;99.90
6106;DHT22;3083;51.508;7.966;2023-02-15T10:54:28;13.20;99.90
6106;DHT22;3083;51.508;7.966;2023-02-15T10:57:02;13.40;99.90
6106;DHT22;3083;51.508;7.966;2023-02-15T10:59:51;13.50;99.90
6106;DHT22;3083;51.508;7.966;2023-02-15T11:02:31;13.70;99.90
6106;DHT22;3083;51.508;7.966;2023-02-15T11:05:20;13.90;99.90
6106;DHT22;3083;51.508;7.966;2023-02-15T11:07:53;14.10;99.90
6106;DHT22;3083;51.508;7.966;2023-02-15T11:10:29;14.30;99.90
6106;DHT22;3083;51.508;7.966;2023-02-15T11:12:57;14.30;99.90
6106;DHT22;3083;51.508;7.966;2023-02-15T11:15:33;14.40;99.90
6106;DHT22;3083;51.508;7.966;2023-02-15T11:18:05;14.50;99.90
6106;DHT22;3083;51.508;7.966;2023-02-15T11:20:38;14.60;99.90
6106;DHT22;3083;51.508;7.966;2023-02-15T11:23:13;14.70;99.90
6106;DHT22;3083;51.508;7.966;2023-02-15T11:25:44;14.70;99.90
6106;DHT22;3083;51.508;7.966;2023-02-15T11:28:18;14.80;99.90
6106;DHT22;3083;51.508;7.966;2023-02-15T11:30:50;14.80;99.90
6106;DHT22;3083;51.508;7.966;2023-02-15T11:33:20;15.00;99.90
6106;DHT22;3083;51.508;7.966;2023-02-15T11:35:53;15.10;99.90
6106;DHT22;3083;51.508;7.966;2023-02-15T11:38:23;15.10;99.90
6106;DHT22;3083;51.508;7.966;2023-02-15T11:40:54;15.20;99.90
6106;DHT22;3083;51.508;7.966;2023-02-15T11:43:28;15.30;99.90
6106;DHT22;3083;51.508;7.966;2023-02-15T11:45:58;15.40;99.90
6106;DHT22;3083;51.508;7.966;2023-02-15T11:48:25;15.40;99.90
6106;DHT22;3083;51.508;7.966;2023-02-15T11:50:52;15.50;99.90
6106;DHT22;3083;51.508;7.966;2023-02-15T11:53:20;15.50;99.90
6106;DHT22;3083;51.508;7.966;2023-02-15T11:55:50;15.60;99.90
6106;DHT22;3083;51.508;7.966;2023-02-15T11:58:25;15.60;99.90
6106;DHT22;3083;51.508;7.966;2023-02-15T12:01:00;15.60;99.90
6106;DHT22;3083;51.508;7.966;2023-02-15T12:03:33;15.70;99.90
6106;DHT22;3083;51.508;7.966;2023-02-15T12:06:04;15.70;99.90
6106;DHT22;3083;51.508;7.966;2023-02-15T12:08:37;15.80;99.90
6106;DHT22;3083;51.508;7.966;2023-02-15T12:11:08;15.70;99.90
6106;DHT22;3083;51.508;7.966;2023-02-15T12:13:44;15.80;99.90
6106;DHT22;3083;51.508;7.966;2023-02-15T12:16:21;15.90;99.90
6106;DHT22;3083;51.508;7.966;2023-02-15T12:18:48;16.00;99.90
6106;DHT22;3083;51.508;7.966;2023-02-15T12:21:26;16.10;99.90
6106;DHT22;3083;51.508;7.966;2023-02-15T12:23:55;16.10;99.90
6106;DHT22;3083;51.508;7.966;2023-02-15T12:26:27;16.10;99.90
6106;DHT22;3083;51.508;7.966;2023-02-15T12:28:57;16.10;99.90
6106;DHT22;3083;51.508;7.966;2023-02-15T12:31:32;16.10;99.90
6106;DHT22;3083;51.508;7.966;2023-02-15T12:34:07;16.10;99.90
6106;DHT22;3083;51.508;7.966;2023-02-15T12:36:42;16.10;99.90
6106;DHT22;3083;51.508;7.966;2023-02-15T12:39:20;16.20;99.90
6106;DHT22;3083;51.508;7.966;2023-02-15T12:41:59;16.20;99.90
6106;DHT22;3083;51.508;7.966;2023-02-15T12:44:28;16.30;99.90
6106;DHT22;3083;51.508;7.966;2023-02-15T12:47:00;16.30;99.90
6106;DHT22;3083;51.508;7.966;2023-02-15T12:49:27;16.30;99.90
6106;DHT22;3083;51.508;7.966;2023-02-15T12:51:56;16.20;99.90
6106;DHT22;3083;51.508;7.966;2023-02-15T12:54:33;16.10;99.90
6106;DHT22;3083;51.508;7.966;2023-02-15T12:57:15;16.10;99.90
6106;DHT22;3083;51.508;7.966;2023-02-15T12:59:50;16.00;99.90
6106;DHT22;3083;51.508;7.966;2023-02-15T13:02:23;16.00;99.90
6106;DHT22;3083;51.508;7.966;2023-02-15T13:04:50;15.90;99.90
6106;DHT22;3083;51.508;7.966;2023-02-15T13:07:17;15.80;99.90
6106;DHT22;3083;51.508;7.966;2023-02-15T13:09:46;15.80;99.90
6106;DHT22;3083;51.508;7.966;2023-02-15T13:12:19;15.80;99.90
6106;DHT22;3083;51.508;7.966;2023-02-15T13:14:49;15.70;99.90
6106;DHT22;3083;51.508;7.966;2023-02-15T13:17:21;15.60;99.90
6106;DHT22;3083;51.508;7.966;2023-02-15T13:19:51;15.60;99.90
6106;DHT22;3083;51.508;7.966;2023-02-15T13:22:22;15.40;99.90
6106;DHT22;3083;51.508;7.966;2023-02-15T13:24:54;15.30;99.90
6106;DHT22;3083;51.508;7.966;2023-02-15T13:27:26;15.20;99.90
6106;DHT22;3083;51.508;7.966;2023-02-15T13:29:58;15.10;99.90
6106;DHT22;3083;51.508;7.966;2023-02-15T13:32:31;15.10;99.90
6106;DHT22;3083;51.508;7.966;2023-02-15T13:35:02;15.10;99.90
6106;DHT22;3083;51.508;7.966;2023-02-15T13:37:47;15.10;99.90
6106;DHT22;3083;51.508;7.966;2023-02-15T13:40:21;15.10;99.90
6106;DHT22;3083;51.508;7.966;2023-02-15T13:42:53;15.10;99.90
6106;DHT22;3083;51.508;7.966;2023-02-15T13:45:39;15.00;99.90
6106;DHT22;3083;51.508;7.966;2023-02-15T13:48:16;15.00;99.90
6106;DHT22;3083;51.508;7.966;2023-02-15T13:51:02;14.90;99.90
6106;DHT22;3083;51.508;7.966;2023-02-15T13:53:56;14.90;99.90
6106;DHT22;3083;51.508;7.966;2023-02-15T13:56:31;14.80;99.90
6106;DHT22;3083;51.508;7.966;2023-02-15T13:59:20;14.80;99.90
6106;DHT22;3083;51.508;7.966;2023-02-15T14:01:56;14.80;99.90
6106;DHT22;3083;51.508;7.966;2023-02-15T14:04:57;14.80;99.90
6106;DHT22;3083;51.508;7.966;2023-02-15T14:07:43;14.70;99.90
6106;DHT22;3083;51.508;7.966;2023-02-15T14:10:28;14.60;99.90
6106;DHT22;3083;51.508;7.966;2023-02-15T14:16:08;14.50;99.90
6106;DHT22;3083;51.508;7.966;2023-02-15T14:18:40;14.40;99.90
6106;DHT22;3083;51.508;7.966;2023-02-15T14:21:17;14.40;99.90
6106;DHT22;3083;51.508;7.966;2023-02-15T14:23:54;14.40;99.90
6106;DHT22;3083;51.508;7.966;2023-02-15T14:26:32;14.40;99.90
6106;DHT22;3083;51.508;7.966;2023-02-15T14:29:08;14.30;99.90
6106;DHT22;3083;51.508;7.966;2023-02-15T14:31:42;14.40;99.90
6106;DHT22;3083;51.508;7.966;2023-02-15T14:34:19;14.40;99.90
6106;DHT22;3083;51.508;7.966;2023-02-15T14:36:49;14.40;99.90
6106;DHT22;3083;51.508;7.966;2023-02-15T14:39:28;14.40;99.90
6106;DHT22;3083;51.508;7.966;2023-02-15T14:42:18;14.40;99.90
6106;DHT22;3083;51.508;7.966;2023-02-15T14:44:51;14.40;99.90
6106;DHT22;3083;51.508;7.966;2023-02-15T14:47:22;14.40;99.90
6106;DHT22;3083;51.508;7.966;2023-02-15T14:49:53;14.30;99.90
6106;DHT22;3083;51.508;7.966;2023-02-15T14:52:21;14.30;99.90
6106;DHT22;3083;51.508;7.966;2023-02-15T14:54:59;14.20;99.90
6106;DHT22;3083;51.508;7.966;2023-02-15T14:57:33;14.00;99.90
6106;DHT22;3083;51.508;7.966;2023-02-15T15:02:45;13.90;99.90
6106;DHT22;3083;51.508;7.966;2023-02-15T15:05:18;13.90;99.90
6106;DHT22;3083;51.508;7.966;2023-02-15T15:07:49;13.90;99.90
6106;DHT22;3083;51.508;7.966;2023-02-15T15:10:44;13.90;99.90
6106;DHT22;3083;51.508;7.966;2023-02-15T15:13:36;14.00;99.90
6106;DHT22;3083;51.508;7.966;2023-02-15T15:19:09;14.00;99.90
6106;DHT22;3083;51.508;7.966;2023-02-15T15:21:56;13.90;99.90
6106;DHT22;3083;51.508;7.966;2023-02-15T15:24:50;13.80;99.90
6106;DHT22;3083;51.508;7.966;2023-02-15T15:37:12;13.10;99.90
6106;DHT22;3083;51.508;7.966;2023-02-15T15:40:10;12.90;99.90
6106;DHT22;3083;51.508;7.966;2023-02-15T15:42:49;12.70;99.90
6106;DHT22;3083;51.508;7.966;2023-02-15T15:45:44;12.50;99.90
6106;DHT22;3083;51.508;7.966;2023-02-15T15:48:27;12.30;99.90
6106;DHT22;3083;51.508;7.966;2023-02-15T15:50:58;12.10;99.90
6106;DHT22;3083;51.508;7.966;2023-02-15T15:53:27;12.00;99.90
6106;DHT22;3083;51.508;7.966;2023-02-15T15:56:00;11.80;99.90
6106;DHT22;3083;51.508;7.966;2023-02-15T15:58:28;11.60;99.90
6106;DHT22;3083;51.508;7.966;2023-02-15T16:01:00;11.50;99.90
6106;DHT22;3083;51.508;7.966;2023-02-15T16:03:29;11.30;99.90
6106;DHT22;3083;51.508;7.966;2023-02-15T16:05:56;11.10;99.90
6106;DHT22;3083;51.508;7.966;2023-02-15T16:08:27;11.00;99.90
6106;DHT22;3083;51.508;7.966;2023-02-15T16:10:54;10.80;99.90
6106;DHT22;3083;51.508;7.966;2023-02-15T16:13:23;10.60;99.90
6106;DHT22;3083;51.508;7.966;2023-02-15T16:15:52;10.50;99.90
6106;DHT22;3083;51.508;7.966;2023-02-15T16:18:22;10.40;99.90
6106;DHT22;3083;51.508;7.966;2023-02-15T16:20:52;10.20;99.90
6106;DHT22;3083;51.508;7.966;2023-02-15T16:26:21;9.90;99.90
6106;DHT22;3083;51.508;7.966;2023-02-15T16:28:53;9.80;99.90
6106;DHT22;3083;51.508;7.966;2023-02-15T16:31:21;9.60;99.90
6106;DHT22;3083;51.508;7.966;2023-02-15T16:33:53;9.50;99.90
6106;DHT22;3083;51.508;7.966;2023-02-15T16:36:22;9.40;99.90
6106;DHT22;3083;51.508;7.966;2023-02-15T16:39:08;9.20;99.90
6106;DHT22;3083;51.508;7.966;2023-02-15T16:41:36;9.10;99.90
6106;DHT22;3083;51.508;7.966;2023-02-15T16:44:07;9.00;99.90
6106;DHT22;3083;51.508;7.966;2023-02-15T16:46:41;8.90;99.90
6106;DHT22;3083;51.508;7.966;2023-02-15T16:49:16;8.80;99.90
6106;DHT22;3083;51.508;7.966;2023-02-15T16:51:45;8.70;99.90
6106;DHT22;3083;51.508;7.966;2023-02-15T16:54:21;8.60;99.90
6106;DHT22;3083;51.508;7.966;2023-02-15T16:56:49;8.60;99.90
6106;DHT22;3083;51.508;7.966;2023-02-15T16:59:32;8.50;99.90
6106;DHT22;3083;51.508;7.966;2023-02-15T17:02:04;8.40;99.90
6106;DHT22;3083;51.508;7.966;2023-02-15T17:04:32;8.40;99.90
6106;DHT22;3083;51.508;7.966;2023-02-15T17:07:03;8.40;99.90
6106;DHT22;3083;51.508;7.966;2023-02-15T17:09:31;8.30;99.90
6106;DHT22;3083;51.508;7.966;2023-02-15T17:11:58;8.30;99.90
6106;DHT22;3083;51.508;7.966;2023-02-15T17:14:30;8.20;99.90
6106;DHT22;3083;51.508;7.966;2023-02-15T17:17:02;8.10;99.90